sensor_id;sensor_type;location;lat;lon;timestamp;pressure;altitude;pressure_sealevel;temperature;humidity
54194;BME280;40102;50.906;6.972;2023-04-06T00:00:48;101193.13;;;7.16;53.81
54194;BME280;40102;50.906;6.972;2023-04-06T00:03:13;101193.75;;;6.98;54.64
54194;BME280;40102;50.906;6.972;2023-04-06T00:05:39;101201.09;;;7.16;54.54
54194;BME280;40102;50.906;6.972;2023-04-06T00:08:05;101195.53;;;7.24;53.19
54194;BME280;40102;50.906;6.972;2023-04-06T00:10:31;101192.63;;;6.78;54.16
54194;BME280;40102;50.906;6.972;2023-04-06T00:12:58;101196.81;;;6.30;55.87
54194;BME280;40102;50.906;6.972;2023-04-06T00:15:24;101198.81;;;5.92;57.36
54194;BME280;40102;50.906;6.972;2023-04-06T00:17:49;101199.91;;;5.52;58.80
54194;BME280;40102;50.906;6.972;2023-04-06T00:20:15;101201.31;;;5.33;59.50
54194;BME280;40102;50.906;6.972;2023-04-06T00:22:41;101196.75;;;5.38;59.29
54194;BME280;40102;50.906;6.972;2023-04-06T00:25:08;101186.69;;;5.51;58.66
54194;BME280;40102;50.906;6.972;2023-04-06T00:27:33;101191.03;;;5.53;58.20
54194;BME280;40102;50.906;6.972;2023-04-06T00:29:59;101197.09;;;5.59;57.94
54194;BME280;40102;50.906;6.972;2023-04-06T00:32:24;101188.53;;;5.47;58.15
54194;BME280;40102;50.906;6.972;2023-04-06T00:34:50;101191.78;;;5.26;59.14
54194;BME280;40102;50.906;6.972;2023-04-06T00:37:15;101183.56;;;5.03;60.12
54194;BME280;40102;50.906;6.972;2023-04-06T00:39:40;101184.16;;;4.80;60.84
54194;BME280;40102;50.906;6.972;2023-04-06T00:42:13;101189.59;;;4.74;61.07
54194;BME280;40102;50.906;6.972;2023-04-06T00:44:40;101183.84;;;4.57;61.76
54194;BME280;40102;50.906;6.972;2023-04-06T00:47:05;101183.03;;;4.53;61.20
54194;BME280;40102;50.906;6.972;2023-04-06T00:49:32;101176.94;;;4.49;61.39
54194;BME280;40102;50.906;6.972;2023-04-06T00:51:58;101167.09;;;4.54;61.23
54194;BME280;40102;50.906;6.972;2023-04-06T00:54:25;101172.09;;;4.67;61.47
54194;BME280;40102;50.906;6.972;2023-04-06T00:56:50;101163.78;;;4.82;60.39
54194;BME280;40102;50.906;6.972;2023-04-06T00:59:16;101162.00;;;4.82;60.46
54194;BME280;40102;50.906;6.972;2023-04-06T01:01:42;101160.16;;;4.86;60.30
54194;BME280;40102;50.906;6.972;2023-04-06T01:04:07;101155.47;;;4.96;59.90
54194;BME280;40102;50.906;6.972;2023-04-06T01:06:32;101150.25;;;4.93;59.67
54194;BME280;40102;50.906;6.972;2023-04-06T01:08:58;101149.44;;;4.91;59.60
54194;BME280;40102;50.906;6.972;2023-04-06T01:11:23;101139.81;;;4.86;59.55
54194;BME280;40102;50.906;6.972;2023-04-06T01:13:49;101141.44;;;4.92;58.89
54194;BME280;40102;50.906;6.972;2023-04-06T01:16:14;101134.47;;;4.88;59.13
54194;BME280;40102;50.906;6.972;2023-04-06T01:18:40;101133.72;;;4.83;59.46
54194;BME280;40102;50.906;6.972;2023-04-06T01:21:07;101129.44;;;4.77;59.49
54194;BME280;40102;50.906;6.972;2023-04-06T01:23:34;101130.22;;;4.81;59.58
54194;BME280;40102;50.906;6.972;2023-04-06T01:25:59;101119.47;;;4.87;59.64
54194;BME280;40102;50.906;6.972;2023-04-06T01:28:25;101119.63;;;5.15;59.58
54194;BME280;40102;50.906;6.972;2023-04-06T01:30:51;101106.16;;;5.52;58.42
54194;BME280;40102;50.906;6.972;2023-04-06T01:33:16;101106.94;;;5.56;57.41
54194;BME280;40102;50.906;6.972;2023-04-06T01:35:41;101110.09;;;5.39;57.11
54194;BME280;40102;50.906;6.972;2023-04-06T01:38:07;101121.44;;;5.13;58.02
54194;BME280;40102;50.906;6.972;2023-04-06T01:40:32;101118.44;;;4.93;58.24
54194;BME280;40102;50.906;6.972;2023-04-06T01:42:58;101119.56;;;4.84;58.43
54194;BME280;40102;50.906;6.972;2023-04-06T01:45:23;101115.34;;;4.75;58.60
54194;BME280;40102;50.906;6.972;2023-04-06T01:47:48;101113.88;;;4.64;58.48
54194;BME280;40102;50.906;6.972;2023-04-06T01:50:14;101108.66;;;4.61;58.93
54194;BME280;40102;50.906;6.972;2023-04-06T01:52:40;101113.16;;;4.57;58.51
54194;BME280;40102;50.906;6.972;2023-04-06T01:55:06;101117.78;;;4.49;59.24
54194;BME280;40102;50.906;6.972;2023-04-06T01:57:31;101111.19;;;4.30;59.08
54194;BME280;40102;50.906;6.972;2023-04-06T01:59:57;101114.97;;;4.19;59.93
54194;BME280;40102;50.906;6.972;2023-04-06T02:02:22;101109.97;;;4.06;60.15
54194;BME280;40102;50.906;6.972;2023-04-06T02:04:48;101111.72;;;4.07;60.16
54194;BME280;40102;50.906;6.972;2023-04-06T02:07:13;101108.97;;;4.11;60.03
54194;BME280;40102;50.906;6.972;2023-04-06T02:09:39;101106.47;;;4.05;60.21
54194;BME280;40102;50.906;6.972;2023-04-06T02:12:04;101111.13;;;3.94;60.99
54194;BME280;40102;50.906;6.972;2023-04-06T02:14:30;101106.16;;;3.79;61.52
54194;BME280;40102;50.906;6.972;2023-04-06T02:16:55;101098.38;;;3.73;62.08
54194;BME280;40102;50.906;6.972;2023-04-06T02:19:20;101100.03;;;3.77;61.93
54194;BME280;40102;50.906;6.972;2023-04-06T02:21:46;101100.69;;;3.88;62.04
54194;BME280;40102;50.906;6.972;2023-04-06T02:24:11;101097.03;;;3.94;61.20
54194;BME280;40102;50.906;6.972;2023-04-06T02:26:37;101097.09;;;3.90;61.39
54194;BME280;40102;50.906;6.972;2023-04-06T02:29:02;101106.00;;;3.86;61.45
54194;BME280;40102;50.906;6.972;2023-04-06T02:31:28;101100.69;;;3.88;61.70
54194;BME280;40102;50.906;6.972;2023-04-06T02:33:53;101109.47;;;3.88;61.82
54194;BME280;40102;50.906;6.972;2023-04-06T02:36:19;101098.44;;;4.08;61.62
54194;BME280;40102;50.906;6.972;2023-04-06T02:38:44;101096.22;;;4.29;59.88
54194;BME280;40102;50.906;6.972;2023-04-06T02:41:10;101095.16;;;4.36;59.08
54194;BME280;40102;50.906;6.972;2023-04-06T02:43:35;101092.06;;;4.17;60.12
54194;BME280;40102;50.906;6.972;2023-04-06T02:46:01;101090.53;;;4.07;61.06
54194;BME280;40102;50.906;6.972;2023-04-06T02:48:26;101097.75;;;4.00;61.38
54194;BME280;40102;50.906;6.972;2023-04-06T02:50:51;101097.22;;;3.84;61.79
54194;BME280;40102;50.906;6.972;2023-04-06T02:53:17;101089.28;;;3.84;62.07
54194;BME280;40102;50.906;6.972;2023-04-06T02:55:42;101083.47;;;3.69;61.59
54194;BME280;40102;50.906;6.972;2023-04-06T02:58:08;101088.97;;;3.58;61.83
54194;BME280;40102;50.906;6.972;2023-04-06T03:00:33;101086.47;;;3.52;62.40
54194;BME280;40102;50.906;6.972;2023-04-06T03:02:59;101086.47;;;3.52;62.68
54194;BME280;40102;50.906;6.972;2023-04-06T03:05:24;101090.06;;;3.48;62.73
54194;BME280;40102;50.906;6.972;2023-04-06T03:07:50;101091.25;;;3.33;63.01
54194;BME280;40102;50.906;6.972;2023-04-06T03:10:15;101091.38;;;3.27;63.91
54194;BME280;40102;50.906;6.972;2023-04-06T03:12:40;101082.50;;;3.31;64.16
54194;BME280;40102;50.906;6.972;2023-04-06T03:15:07;101091.38;;;3.27;64.15
54194;BME280;40102;50.906;6.972;2023-04-06T03:17:33;101090.34;;;3.34;63.59
54194;BME280;40102;50.906;6.972;2023-04-06T03:19:58;101085.28;;;3.23;63.40
54194;BME280;40102;50.906;6.972;2023-04-06T03:22:24;101081.03;;;3.15;64.33
54194;BME280;40102;50.906;6.972;2023-04-06T03:24:49;101088.84;;;3.21;64.29
54194;BME280;40102;50.906;6.972;2023-04-06T03:27:15;101082.13;;;3.05;64.65
54194;BME280;40102;50.906;6.972;2023-04-06T03:29:40;101084.00;;;2.98;65.36
54194;BME280;40102;50.906;6.972;2023-04-06T03:32:06;101083.16;;;2.96;65.41
54194;BME280;40102;50.906;6.972;2023-04-06T03:34:31;101075.13;;;3.02;65.18
54194;BME280;40102;50.906;6.972;2023-04-06T03:36:57;101079.13;;;3.23;64.50
54194;BME280;40102;50.906;6.972;2023-04-06T03:39:22;101071.69;;;3.42;63.81
54194;BME280;40102;50.906;6.972;2023-04-06T03:41:50;101078.56;;;3.50;62.91
54194;BME280;40102;50.906;6.972;2023-04-06T03:44:16;101077.91;;;3.39;63.61
54194;BME280;40102;50.906;6.972;2023-04-06T03:46:41;101083.47;;;3.25;63.91
54194;BME280;40102;50.906;6.972;2023-04-06T03:49:07;101077.56;;;3.13;64.11
54194;BME280;40102;50.906;6.972;2023-04-06T03:51:32;101086.34;;;3.15;64.40
54194;BME280;40102;50.906;6.972;2023-04-06T03:53:58;101075.75;;;3.15;64.33
54194;BME280;40102;50.906;6.972;2023-04-06T03:56:23;101074.19;;;3.05;64.54
54194;BME280;40102;50.906;6.972;2023-04-06T03:58:48;101086.59;;;3.01;64.82
54194;BME280;40102;50.906;6.972;2023-04-06T04:01:16;101084.13;;;2.92;65.29
54194;BME280;40102;50.906;6.972;2023-04-06T04:03:43;101071.53;;;3.06;65.17
54194;BME280;40102;50.906;6.972;2023-04-06T04:06:08;101078.19;;;3.25;64.14
54194;BME280;40102;50.906;6.972;2023-04-06T04:08:33;101084.47;;;3.20;64.20
54194;BME280;40102;50.906;6.972;2023-04-06T04:11:00;101079.28;;;3.15;64.33
54194;BME280;40102;50.906;6.972;2023-04-06T04:13:25;101076.44;;;3.24;64.20
54194;BME280;40102;50.906;6.972;2023-04-06T04:15:51;101070.88;;;3.38;64.03
54194;BME280;40102;50.906;6.972;2023-04-06T04:18:16;101074.72;;;3.65;63.03
54194;BME280;40102;50.906;6.972;2023-04-06T04:20:42;101076.94;;;3.85;62.21
54194;BME280;40102;50.906;6.972;2023-04-06T04:23:07;101074.22;;;3.88;61.54
54194;BME280;40102;50.906;6.972;2023-04-06T04:25:32;101074.13;;;3.91;61.69
54194;BME280;40102;50.906;6.972;2023-04-06T04:27:58;101087.28;;;3.96;61.43
54194;BME280;40102;50.906;6.972;2023-04-06T04:30:23;101081.19;;;3.92;61.06
54194;BME280;40102;50.906;6.972;2023-04-06T04:32:49;101080.53;;;3.81;61.27
54194;BME280;40102;50.906;6.972;2023-04-06T04:35:14;101082.34;;;3.79;61.70
54194;BME280;40102;50.906;6.972;2023-04-06T04:37:41;101080.63;;;3.78;60.73
54194;BME280;40102;50.906;6.972;2023-04-06T04:40:07;101088.59;;;3.76;60.93
54194;BME280;40102;50.906;6.972;2023-04-06T04:42:35;101086.97;;;3.69;60.73
54194;BME280;40102;50.906;6.972;2023-04-06T04:45:01;101085.44;;;3.59;61.11
54194;BME280;40102;50.906;6.972;2023-04-06T04:47:26;101080.41;;;3.47;61.19
54194;BME280;40102;50.906;6.972;2023-04-06T04:49:52;101091.00;;;3.45;61.78
54194;BME280;40102;50.906;6.972;2023-04-06T04:52:17;101080.28;;;3.53;61.20
54194;BME280;40102;50.906;6.972;2023-04-06T04:54:43;101081.22;;;3.50;61.02
54194;BME280;40102;50.906;6.972;2023-04-06T04:57:09;101083.97;;;3.44;61.20
54194;BME280;40102;50.906;6.972;2023-04-06T04:59:35;101089.28;;;3.44;61.17
54194;BME280;40102;50.906;6.972;2023-04-06T05:02:00;101089.47;;;3.34;61.36
54194;BME280;40102;50.906;6.972;2023-04-06T05:04:26;101084.16;;;3.35;61.26
54194;BME280;40102;50.906;6.972;2023-04-06T05:07:10;101085.16;;;3.30;61.45
54194;BME280;40102;50.906;6.972;2023-04-06T05:09:35;101090.59;;;3.22;61.49
54194;BME280;40102;50.906;6.972;2023-04-06T05:12:01;101085.38;;;3.19;61.41
54194;BME280;40102;50.906;6.972;2023-04-06T05:14:27;101089.78;;;3.18;61.54
54194;BME280;40102;50.906;6.972;2023-04-06T05:16:53;101092.31;;;3.24;61.30
54194;BME280;40102;50.906;6.972;2023-04-06T05:19:19;101086.09;;;3.27;61.17
54194;BME280;40102;50.906;6.972;2023-04-06T05:21:45;101094.84;;;3.31;60.50
54194;BME280;40102;50.906;6.972;2023-04-06T05:24:10;101085.94;;;3.35;60.94
54194;BME280;40102;50.906;6.972;2023-04-06T05:26:36;101085.47;;;3.57;60.51
54194;BME280;40102;50.906;6.972;2023-04-06T05:29:01;101086.31;;;3.60;59.91
54194;BME280;40102;50.906;6.972;2023-04-06T05:31:27;101085.47;;;3.57;59.76
54194;BME280;40102;50.906;6.972;2023-04-06T05:33:52;101087.13;;;3.62;60.66
54194;BME280;40102;50.906;6.972;2023-04-06T05:36:18;101083.31;;;3.75;58.85
54194;BME280;40102;50.906;6.972;2023-04-06T05:38:43;101100.06;;;3.75;58.65
54194;BME280;40102;50.906;6.972;2023-04-06T05:41:09;101089.34;;;3.81;58.80
54194;BME280;40102;50.906;6.972;2023-04-06T05:43:34;101097.16;;;3.87;58.04
54194;BME280;40102;50.906;6.972;2023-04-06T05:46:00;101091.19;;;3.78;58.69
54194;BME280;40102;50.906;6.972;2023-04-06T05:48:25;101088.69;;;3.72;58.33
54194;BME280;40102;50.906;6.972;2023-04-06T05:50:51;101102.94;;;3.65;58.99
54194;BME280;40102;50.906;6.972;2023-04-06T05:53:16;101099.47;;;3.63;59.27
54194;BME280;40102;50.906;6.972;2023-04-06T05:55:42;101093.31;;;3.62;60.51
54194;BME280;40102;50.906;6.972;2023-04-06T05:58:07;101090.50;;;3.70;59.71
54194;BME280;40102;50.906;6.972;2023-04-06T06:00:33;101095.97;;;3.61;60.03
54194;BME280;40102;50.906;6.972;2023-04-06T06:02:58;101090.63;;;3.64;59.51
54194;BME280;40102;50.906;6.972;2023-04-06T06:05:24;101090.59;;;3.65;59.36
54194;BME280;40102;50.906;6.972;2023-04-06T06:07:49;101099.06;;;3.81;59.47
54194;BME280;40102;50.906;6.972;2023-04-06T06:10:15;101093.50;;;3.93;59.41
54194;BME280;40102;50.906;6.972;2023-04-06T06:12:40;101092.44;;;4.02;59.35
54194;BME280;40102;50.906;6.972;2023-04-06T06:15:06;101095.19;;;3.97;59.86
54194;BME280;40102;50.906;6.972;2023-04-06T06:17:32;101092.44;;;4.02;59.24
54194;BME280;40102;50.906;6.972;2023-04-06T06:19:58;101093.47;;;3.95;59.74
54194;BME280;40102;50.906;6.972;2023-04-06T06:22:24;101085.50;;;3.96;59.85
54194;BME280;40102;50.906;6.972;2023-04-06T06:24:49;101078.44;;;3.97;60.48
54194;BME280;40102;50.906;6.972;2023-04-06T06:27:15;101078.91;;;4.14;60.99
54194;BME280;40102;50.906;6.972;2023-04-06T06:29:41;101084.56;;;4.36;59.95
54194;BME280;40102;50.906;6.972;2023-04-06T06:32:06;101090.38;;;4.50;59.04
54194;BME280;40102;50.906;6.972;2023-04-06T06:34:34;101084.94;;;4.56;58.63
54194;BME280;40102;50.906;6.972;2023-04-06T06:37:00;101092.81;;;4.59;58.24
54194;BME280;40102;50.906;6.972;2023-04-06T06:39:25;101084.63;;;4.68;58.17
54194;BME280;40102;50.906;6.972;2023-04-06T06:41:51;101070.34;;;4.74;57.50
54194;BME280;40102;50.906;6.972;2023-04-06T06:44:17;101092.47;;;4.73;58.45
54194;BME280;40102;50.906;6.972;2023-04-06T06:46:42;101083.44;;;4.80;58.46
54194;BME280;40102;50.906;6.972;2023-04-06T06:49:08;101079.16;;;4.74;58.25
54194;BME280;40102;50.906;6.972;2023-04-06T06:51:34;101085.34;;;4.75;57.72
54194;BME280;40102;50.906;6.972;2023-04-06T06:53:59;101078.94;;;4.83;57.51
54194;BME280;40102;50.906;6.972;2023-04-06T06:56:25;101079.47;;;4.96;57.07
54194;BME280;40102;50.906;6.972;2023-04-06T06:58:51;101074.78;;;5.06;56.97
54194;BME280;40102;50.906;6.972;2023-04-06T07:01:17;101069.09;;;5.19;56.55
54194;BME280;40102;50.906;6.972;2023-04-06T07:03:42;101063.38;;;5.33;56.20
54194;BME280;40102;50.906;6.972;2023-04-06T07:06:08;101065.16;;;5.33;56.70
54194;BME280;40102;50.906;6.972;2023-04-06T07:08:33;101063.06;;;5.44;56.45
54194;BME280;40102;50.906;6.972;2023-04-06T07:10:59;101070.16;;;5.43;56.50
54194;BME280;40102;50.906;6.972;2023-04-06T07:13:24;101065.34;;;5.56;55.94
54194;BME280;40102;50.906;6.972;2023-04-06T07:15:51;101063.16;;;5.70;56.11
54194;BME280;40102;50.906;6.972;2023-04-06T07:18:18;101065.31;;;5.87;55.32
54194;BME280;40102;50.906;6.972;2023-04-06T07:20:43;101070.56;;;5.90;55.28
54194;BME280;40102;50.906;6.972;2023-04-06T07:23:09;101054.88;;;5.81;54.94
54194;BME280;40102;50.906;6.972;2023-04-06T07:25:34;101063.50;;;5.89;54.87
54194;BME280;40102;50.906;6.972;2023-04-06T07:28:01;101059.94;;;5.90;55.08
54194;BME280;40102;50.906;6.972;2023-04-06T07:30:27;101055.75;;;5.81;55.49
54194;BME280;40102;50.906;6.972;2023-04-06T07:32:54;101061.66;;;5.91;55.50
54194;BME280;40102;50.906;6.972;2023-04-06T07:35:24;101057.00;;;5.99;55.22
54194;BME280;40102;50.906;6.972;2023-04-06T07:37:51;101056.59;;;6.11;54.93
54194;BME280;40102;50.906;6.972;2023-04-06T07:40:16;101058.16;;;6.18;54.83
54194;BME280;40102;50.906;6.972;2023-04-06T07:42:42;101057.78;;;6.29;54.13
54194;BME280;40102;50.906;6.972;2023-04-06T07:45:07;101057.53;;;6.37;54.95
54194;BME280;40102;50.906;6.972;2023-04-06T07:47:33;101054.59;;;6.46;54.83
54194;BME280;40102;50.906;6.972;2023-04-06T07:49:59;101058.97;;;6.47;54.76
54194;BME280;40102;50.906;6.972;2023-04-06T07:52:24;101055.19;;;6.54;54.61
54194;BME280;40102;50.906;6.972;2023-04-06T07:54:50;101052.34;;;6.60;54.65
54194;BME280;40102;50.906;6.972;2023-04-06T07:57:15;101053.16;;;6.62;55.78
54194;BME280;40102;50.906;6.972;2023-04-06T07:59:41;101045.84;;;6.69;55.63
54194;BME280;40102;50.906;6.972;2023-04-06T08:02:06;101051.44;;;6.86;54.76
54194;BME280;40102;50.906;6.972;2023-04-06T08:04:32;101043.78;;;7.02;54.11
54194;BME280;40102;50.906;6.972;2023-04-06T08:06:57;101039.09;;;7.08;53.86
54194;BME280;40102;50.906;6.972;2023-04-06T08:09:23;101042.41;;;7.15;53.70
54194;BME280;40102;50.906;6.972;2023-04-06T08:11:48;101047.56;;;7.20;54.32
54194;BME280;40102;50.906;6.972;2023-04-06T08:14:14;101047.44;;;7.23;53.35
54194;BME280;40102;50.906;6.972;2023-04-06T08:16:43;101046.66;;;7.21;53.20
54194;BME280;40102;50.906;6.972;2023-04-06T08:19:08;101034.31;;;7.18;53.86
54194;BME280;40102;50.906;6.972;2023-04-06T08:21:35;101040.44;;;7.20;53.37
54194;BME280;40102;50.906;6.972;2023-04-06T08:24:01;101042.06;;;7.24;53.34
54194;BME280;40102;50.906;6.972;2023-04-06T08:26:27;101036.63;;;7.27;53.22
54194;BME280;40102;50.906;6.972;2023-04-06T08:28:53;101030.22;;;7.33;52.61
54194;BME280;40102;50.906;6.972;2023-04-06T08:31:18;101045.09;;;7.38;52.52
54194;BME280;40102;50.906;6.972;2023-04-06T08:33:44;101035.97;;;7.45;53.36
54194;BME280;40102;50.906;6.972;2023-04-06T08:36:13;101029.59;;;7.50;53.81
54194;BME280;40102;50.906;6.972;2023-04-06T08:38:40;101034.63;;;7.57;53.72
54194;BME280;40102;50.906;6.972;2023-04-06T08:41:16;101038.84;;;7.63;53.72
54194;BME280;40102;50.906;6.972;2023-04-06T08:43:49;101030.75;;;7.66;53.01
54194;BME280;40102;50.906;6.972;2023-04-06T08:46:15;101037.56;;;7.73;52.93
54194;BME280;40102;50.906;6.972;2023-04-06T08:48:42;101034.72;;;7.77;53.39
54194;BME280;40102;50.906;6.972;2023-04-06T08:51:09;101022.03;;;7.84;53.43
54194;BME280;40102;50.906;6.972;2023-04-06T08:53:36;101019.94;;;7.92;53.53
54194;BME280;40102;50.906;6.972;2023-04-06T08:56:02;101015.84;;;8.05;53.05
54194;BME280;40102;50.906;6.972;2023-04-06T08:58:34;101024.41;;;8.13;53.48
54194;BME280;40102;50.906;6.972;2023-04-06T09:01:03;101021.41;;;8.21;53.52
54194;BME280;40102;50.906;6.972;2023-04-06T09:03:31;101022.09;;;8.26;53.13
54194;BME280;40102;50.906;6.972;2023-04-06T09:05:58;101016.50;;;8.32;52.54
54194;BME280;40102;50.906;6.972;2023-04-06T09:08:24;101010.75;;;8.43;52.69
54194;BME280;40102;50.906;6.972;2023-04-06T09:10:50;101013.22;;;8.48;52.17
54194;BME280;40102;50.906;6.972;2023-04-06T09:13:17;101018.16;;;8.57;51.93
54194;BME280;40102;50.906;6.972;2023-04-06T09:15:42;101011.50;;;8.67;52.51
54194;BME280;40102;50.906;6.972;2023-04-06T09:18:08;101012.03;;;8.75;52.27
54194;BME280;40102;50.906;6.972;2023-04-06T09:20:33;101010.03;;;8.80;51.32
54194;BME280;40102;50.906;6.972;2023-04-06T09:22:59;101017.66;;;8.89;51.03
54194;BME280;40102;50.906;6.972;2023-04-06T09:25:24;101008.44;;;8.96;51.55
54194;BME280;40102;50.906;6.972;2023-04-06T09:28:03;101009.03;;;9.03;50.68
54194;BME280;40102;50.906;6.972;2023-04-06T09:30:29;101005.22;;;9.08;50.74
54194;BME280;40102;50.906;6.972;2023-04-06T09:32:57;101004.81;;;9.18;51.26
54194;BME280;40102;50.906;6.972;2023-04-06T09:35:24;101007.19;;;9.24;51.00
54194;BME280;40102;50.906;6.972;2023-04-06T09:37:54;101004.31;;;9.28;50.73
54194;BME280;40102;50.906;6.972;2023-04-06T09:40:21;101001.66;;;9.28;50.27
54194;BME280;40102;50.906;6.972;2023-04-06T09:42:48;101000.34;;;9.37;51.75
54194;BME280;40102;50.906;6.972;2023-04-06T09:45:15;100984.84;;;9.45;51.46
54194;BME280;40102;50.906;6.972;2023-04-06T09:47:45;100989.91;;;9.51;49.80
54194;BME280;40102;50.906;6.972;2023-04-06T09:50:14;100981.53;;;9.59;51.52
54194;BME280;40102;50.906;6.972;2023-04-06T09:55:08;100982.81;;;9.69;51.31
54194;BME280;40102;50.906;6.972;2023-04-06T09:57:50;100982.69;;;9.72;51.28
54194;BME280;40102;50.906;6.972;2023-04-06T10:00:21;100980.81;;;9.74;50.90
54194;BME280;40102;50.906;6.972;2023-04-06T10:08:08;100984.25;;;9.95;49.48
54194;BME280;40102;50.906;6.972;2023-04-06T10:10:33;100979.59;;;9.98;49.62
54194;BME280;40102;50.906;6.972;2023-04-06T10:12:59;100972.09;;;10.06;49.43
54194;BME280;40102;50.906;6.972;2023-04-06T10:15:26;100978.28;;;10.07;48.47
54194;BME280;40102;50.906;6.972;2023-04-06T10:17:52;100980.59;;;10.15;49.17
54194;BME280;40102;50.906;6.972;2023-04-06T10:20:25;100973.34;;;10.17;49.25
54194;BME280;40102;50.906;6.972;2023-04-06T10:23:08;100978.59;;;10.20;49.16
54194;BME280;40102;50.906;6.972;2023-04-06T10:25:34;100981.97;;;10.23;49.03
54194;BME280;40102;50.906;6.972;2023-04-06T10:28:08;100979.22;;;10.25;47.86
54194;BME280;40102;50.906;6.972;2023-04-06T10:30:34;100977.34;;;10.27;47.69
54194;BME280;40102;50.906;6.972;2023-04-06T10:33:00;100969.53;;;10.22;47.87
54194;BME280;40102;50.906;6.972;2023-04-06T10:35:36;100958.63;;;10.27;47.87
54194;BME280;40102;50.906;6.972;2023-04-06T10:38:04;100965.63;;;10.29;47.54
54194;BME280;40102;50.906;6.972;2023-04-06T10:40:29;100968.78;;;10.37;46.72
54194;BME280;40102;50.906;6.972;2023-04-06T10:43:10;100966.16;;;10.36;46.20
54194;BME280;40102;50.906;6.972;2023-04-06T10:45:37;100961.63;;;10.38;46.38
54194;BME280;40102;50.906;6.972;2023-04-06T10:48:17;100968.97;;;10.50;45.83
54194;BME280;40102;50.906;6.972;2023-04-06T10:50:48;100967.25;;;10.49;44.85
54194;BME280;40102;50.906;6.972;2023-04-06T10:53:24;100961.97;;;10.48;44.96
54194;BME280;40102;50.906;6.972;2023-04-06T10:55:51;100963.88;;;10.46;44.44
54194;BME280;40102;50.906;6.972;2023-04-06T10:58:17;100964.88;;;10.43;44.92
54194;BME280;40102;50.906;6.972;2023-04-06T11:00:45;100963.00;;;10.45;45.00
54194;BME280;40102;50.906;6.972;2023-04-06T11:03:11;100962.06;;;10.46;45.41
54194;BME280;40102;50.906;6.972;2023-04-06T11:05:36;100963.31;;;10.56;45.58
54194;BME280;40102;50.906;6.972;2023-04-06T11:08:02;100956.22;;;10.55;44.87
54194;BME280;40102;50.906;6.972;2023-04-06T11:10:28;100953.25;;;10.61;44.96
54194;BME280;40102;50.906;6.972;2023-04-06T11:12:56;100962.13;;;10.62;44.18
54194;BME280;40102;50.906;6.972;2023-04-06T11:15:21;100961.88;;;10.66;42.99
54194;BME280;40102;50.906;6.972;2023-04-06T11:17:47;100954.47;;;10.71;43.28
54194;BME280;40102;50.906;6.972;2023-04-06T11:20:14;100957.09;;;10.73;43.12
54194;BME280;40102;50.906;6.972;2023-04-06T11:22:50;100963.13;;;10.77;42.83
54194;BME280;40102;50.906;6.972;2023-04-06T11:25:17;100979.03;;;10.80;41.91
54194;BME280;40102;50.906;6.972;2023-04-06T11:27:43;100962.03;;;10.81;41.93
54194;BME280;40102;50.906;6.972;2023-04-06T11:30:09;100948.97;;;10.75;42.31
54194;BME280;40102;50.906;6.972;2023-04-06T11:32:43;100960.91;;;10.85;42.04
54194;BME280;40102;50.906;6.972;2023-04-06T11:35:27;100961.09;;;10.82;42.65
54194;BME280;40102;50.906;6.972;2023-04-06T11:37:56;100950.78;;;10.74;43.01
54194;BME280;40102;50.906;6.972;2023-04-06T11:40:22;100952.50;;;10.75;43.19
54194;BME280;40102;50.906;6.972;2023-04-06T11:42:54;100949.84;;;10.75;43.16
54194;BME280;40102;50.906;6.972;2023-04-06T11:45:20;100952.44;;;10.77;43.37
54194;BME280;40102;50.906;6.972;2023-04-06T11:47:58;100950.53;;;10.79;43.65
54194;BME280;40102;50.906;6.972;2023-04-06T11:50:24;100946.22;;;10.76;43.25
54194;BME280;40102;50.906;6.972;2023-04-06T11:52:58;100950.88;;;10.73;43.50
54194;BME280;40102;50.906;6.972;2023-04-06T11:55:27;100940.72;;;10.79;43.52
54194;BME280;40102;50.906;6.972;2023-04-06T11:57:52;100945.72;;;10.85;43.53
54194;BME280;40102;50.906;6.972;2023-04-06T12:00:18;100937.22;;;10.94;43.51
54194;BME280;40102;50.906;6.972;2023-04-06T12:02:48;100948.53;;;10.99;43.53
54194;BME280;40102;50.906;6.972;2023-04-06T12:05:14;100948.75;;;11.12;43.35
54194;BME280;40102;50.906;6.972;2023-04-06T12:07:39;100943.03;;;11.18;43.20
54194;BME280;40102;50.906;6.972;2023-04-06T12:10:05;100944.94;;;11.16;43.38
54194;BME280;40102;50.906;6.972;2023-04-06T12:12:30;100937.00;;;11.15;43.94
54194;BME280;40102;50.906;6.972;2023-04-06T12:14:57;100937.50;;;11.06;42.63
54194;BME280;40102;50.906;6.972;2023-04-06T12:17:22;100939.38;;;11.03;42.60
54194;BME280;40102;50.906;6.972;2023-04-06T12:19:48;100936.81;;;11.02;42.70
54194;BME280;40102;50.906;6.972;2023-04-06T12:22:14;100936.38;;;11.10;42.59
54194;BME280;40102;50.906;6.972;2023-04-06T12:24:39;100942.44;;;11.13;42.02
54194;BME280;40102;50.906;6.972;2023-04-06T12:27:05;100932.34;;;11.18;41.51
54194;BME280;40102;50.906;6.972;2023-04-06T12:29:30;100941.06;;;11.22;41.81
54194;BME280;40102;50.906;6.972;2023-04-06T12:31:56;100927.94;;;11.17;41.86
54194;BME280;40102;50.906;6.972;2023-04-06T12:34:21;100942.78;;;11.23;42.01
54194;BME280;40102;50.906;6.972;2023-04-06T12:36:47;100946.00;;;11.29;41.40
54194;BME280;40102;50.906;6.972;2023-04-06T12:39:12;100950.50;;;11.29;42.27
54194;BME280;40102;50.906;6.972;2023-04-06T12:41:37;100935.19;;;11.15;42.31
54194;BME280;40102;50.906;6.972;2023-04-06T12:44:06;100935.34;;;11.12;42.94
54194;BME280;40102;50.906;6.972;2023-04-06T12:46:32;100942.59;;;11.10;43.21
54194;BME280;40102;50.906;6.972;2023-04-06T12:48:57;100939.44;;;11.19;43.48
54194;BME280;40102;50.906;6.972;2023-04-06T12:51:24;100937.81;;;11.32;42.90
54194;BME280;40102;50.906;6.972;2023-04-06T12:53:50;100937.28;;;11.42;42.82
54194;BME280;40102;50.906;6.972;2023-04-06T12:56:17;100930.81;;;11.46;42.85
54194;BME280;40102;50.906;6.972;2023-04-06T12:58:43;100926.31;;;11.46;43.14
54194;BME280;40102;50.906;6.972;2023-04-06T13:01:10;100939.47;;;11.51;43.56